sensor_id;sensor_type;location;lat;lon;timestamp;P1;durP1;ratioP1;P2;durP2;ratioP2
3443;SDS011;1736;52.068;6.968;2023-04-24T00:01:23;5.60;;;5.10;;
3443;SDS011;1736;52.068;6.968;2023-04-24T00:03:50;5.53;;;4.40;;
3443;SDS011;1736;52.068;6.968;2023-04-24T00:06:17;4.83;;;4.43;;
3443;SDS011;1736;52.068;6.968;2023-04-24T00:08:45;4.50;;;4.10;;
3443;SDS011;1736;52.068;6.968;2023-04-24T00:11:11;4.83;;;4.33;;
3443;SDS011;1736;52.068;6.968;2023-04-24T00:13:38;5.17;;;4.67;;
3443;SDS011;1736;52.068;6.968;2023-04-24T00:16:05;5.60;;;5.10;;
3443;SDS011;1736;52.068;6.968;2023-04-24T00:18:31;5.10;;;4.60;;
3443;SDS011;1736;52.068;6.968;2023-04-24T00:20:58;5.90;;;4.73;;
3443;SDS011;1736;52.068;6.968;2023-04-24T00:23:31;4.90;;;4.40;;
3443;SDS011;1736;52.068;6.968;2023-04-24T00:25:59;5.30;;;4.40;;
3443;SDS011;1736;52.068;6.968;2023-04-24T00:28:25;4.97;;;4.47;;
3443;SDS011;1736;52.068;6.968;2023-04-24T00:30:52;5.37;;;4.87;;
3443;SDS011;1736;52.068;6.968;2023-04-24T00:33:18;5.37;;;4.87;;
3443;SDS011;1736;52.068;6.968;2023-04-24T00:35:45;6.37;;;4.80;;
3443;SDS011;1736;52.068;6.968;2023-04-24T00:38:11;5.37;;;4.80;;
3443;SDS011;1736;52.068;6.968;2023-04-24T00:40:38;5.63;;;4.97;;
3443;SDS011;1736;52.068;6.968;2023-04-24T00:43:06;5.07;;;4.47;;
3443;SDS011;1736;52.068;6.968;2023-04-24T00:45:33;5.10;;;4.57;;
3443;SDS011;1736;52.068;6.968;2023-04-24T00:47:59;5.17;;;4.67;;
3443;SDS011;1736;52.068;6.968;2023-04-24T00:50:26;5.17;;;4.50;;
3443;SDS011;1736;52.068;6.968;2023-04-24T00:52:54;4.50;;;4.10;;
3443;SDS011;1736;52.068;6.968;2023-04-24T00:55:20;4.90;;;3.63;;
3443;SDS011;1736;52.068;6.968;2023-04-24T00:57:47;3.67;;;3.30;;
3443;SDS011;1736;52.068;6.968;2023-04-24T01:00:17;3.43;;;3.13;;
3443;SDS011;1736;52.068;6.968;2023-04-24T01:02:44;3.73;;;3.37;;
3443;SDS011;1736;52.068;6.968;2023-04-24T01:05:12;4.10;;;3.37;;
3443;SDS011;1736;52.068;6.968;2023-04-24T01:07:40;3.23;;;2.87;;
3443;SDS011;1736;52.068;6.968;2023-04-24T01:10:10;3.83;;;3.27;;
3443;SDS011;1736;52.068;6.968;2023-04-24T01:12:38;2.30;;;2.20;;
3443;SDS011;1736;52.068;6.968;2023-04-24T01:15:05;2.70;;;2.50;;
3443;SDS011;1736;52.068;6.968;2023-04-24T01:17:33;2.90;;;2.50;;
3443;SDS011;1736;52.068;6.968;2023-04-24T01:20:07;2.60;;;2.50;;
3443;SDS011;1736;52.068;6.968;2023-04-24T01:22:35;3.13;;;2.90;;
3443;SDS011;1736;52.068;6.968;2023-04-24T01:25:02;4.00;;;3.60;;
3443;SDS011;1736;52.068;6.968;2023-04-24T01:27:30;3.53;;;3.27;;
3443;SDS011;1736;52.068;6.968;2023-04-24T01:29:56;4.20;;;3.80;;
3443;SDS011;1736;52.068;6.968;2023-04-24T01:32:23;4.80;;;4.30;;
3443;SDS011;1736;52.068;6.968;2023-04-24T01:34:50;5.07;;;4.57;;
3443;SDS011;1736;52.068;6.968;2023-04-24T01:37:17;7.00;;;5.77;;
3443;SDS011;1736;52.068;6.968;2023-04-24T01:39:45;7.90;;;6.07;;
3443;SDS011;1736;52.068;6.968;2023-04-24T01:42:11;8.13;;;6.10;;
3443;SDS011;1736;52.068;6.968;2023-04-24T01:44:39;7.73;;;6.10;;
3443;SDS011;1736;52.068;6.968;2023-04-24T01:47:06;8.83;;;6.73;;
3443;SDS011;1736;52.068;6.968;2023-04-24T01:49:33;10.90;;;7.07;;
3443;SDS011;1736;52.068;6.968;2023-04-24T01:52:00;8.03;;;6.60;;
3443;SDS011;1736;52.068;6.968;2023-04-24T01:54:27;7.03;;;5.90;;
3443;SDS011;1736;52.068;6.968;2023-04-24T01:56:54;9.80;;;7.13;;
3443;SDS011;1736;52.068;6.968;2023-04-24T01:59:21;7.60;;;6.33;;
3443;SDS011;1736;52.068;6.968;2023-04-24T02:01:49;11.03;;;6.97;;
3443;SDS011;1736;52.068;6.968;2023-04-24T02:04:15;11.97;;;7.10;;
3443;SDS011;1736;52.068;6.968;2023-04-24T02:06:42;11.43;;;7.00;;
3443;SDS011;1736;52.068;6.968;2023-04-24T02:09:08;9.03;;;7.10;;
3443;SDS011;1736;52.068;6.968;2023-04-24T02:11:37;8.77;;;7.10;;
3443;SDS011;1736;52.068;6.968;2023-04-24T02:14:05;10.67;;;7.03;;
3443;SDS011;1736;52.068;6.968;2023-04-24T02:16:31;11.70;;;8.10;;
3443;SDS011;1736;52.068;6.968;2023-04-24T02:18:58;10.50;;;7.70;;
3443;SDS011;1736;52.068;6.968;2023-04-24T02:21:33;11.00;;;7.43;;
3443;SDS011;1736;52.068;6.968;2023-04-24T02:24:13;10.30;;;7.30;;
3443;SDS011;1736;52.068;6.968;2023-04-24T02:26:39;9.77;;;7.10;;
3443;SDS011;1736;52.068;6.968;2023-04-24T02:29:07;9.00;;;7.47;;
3443;SDS011;1736;52.068;6.968;2023-04-24T02:31:34;8.73;;;6.87;;
3443;SDS011;1736;52.068;6.968;2023-04-24T02:34:00;9.90;;;7.27;;
3443;SDS011;1736;52.068;6.968;2023-04-24T02:36:27;10.60;;;7.60;;
3443;SDS011;1736;52.068;6.968;2023-04-24T02:38:53;12.20;;;8.00;;
3443;SDS011;1736;52.068;6.968;2023-04-24T02:41:20;14.03;;;9.47;;
3443;SDS011;1736;52.068;6.968;2023-04-24T02:43:46;11.70;;;8.80;;
3443;SDS011;1736;52.068;6.968;2023-04-24T02:46:14;15.07;;;8.93;;
3443;SDS011;1736;52.068;6.968;2023-04-24T02:48:40;11.73;;;8.50;;
3443;SDS011;1736;52.068;6.968;2023-04-24T02:51:07;14.50;;;9.20;;
3443;SDS011;1736;52.068;6.968;2023-04-24T02:53:33;13.50;;;8.60;;
3443;SDS011;1736;52.068;6.968;2023-04-24T02:56:00;14.80;;;9.30;;
3443;SDS011;1736;52.068;6.968;2023-04-24T02:58:26;18.67;;;9.80;;
3443;SDS011;1736;52.068;6.968;2023-04-24T03:00:53;16.43;;;9.30;;
3443;SDS011;1736;52.068;6.968;2023-04-24T03:03:22;11.67;;;8.27;;
3443;SDS011;1736;52.068;6.968;2023-04-24T03:05:49;13.67;;;9.30;;
3443;SDS011;1736;52.068;6.968;2023-04-24T03:08:16;16.87;;;10.10;;
3443;SDS011;1736;52.068;6.968;2023-04-24T03:10:42;15.00;;;10.33;;
3443;SDS011;1736;52.068;6.968;2023-04-24T03:13:09;14.27;;;9.67;;
3443;SDS011;1736;52.068;6.968;2023-04-24T03:15:35;14.33;;;9.50;;
3443;SDS011;1736;52.068;6.968;2023-04-24T03:18:02;16.50;;;10.03;;
3443;SDS011;1736;52.068;6.968;2023-04-24T03:20:30;17.40;;;11.07;;
3443;SDS011;1736;52.068;6.968;2023-04-24T03:22:56;19.53;;;11.10;;
3443;SDS011;1736;52.068;6.968;2023-04-24T03:25:23;20.10;;;12.37;;
3443;SDS011;1736;52.068;6.968;2023-04-24T03:27:50;15.80;;;10.77;;
3443;SDS011;1736;52.068;6.968;2023-04-24T03:30:16;16.90;;;10.27;;
3443;SDS011;1736;52.068;6.968;2023-04-24T03:32:43;19.07;;;12.33;;
3443;SDS011;1736;52.068;6.968;2023-04-24T03:35:09;20.70;;;11.97;;
3443;SDS011;1736;52.068;6.968;2023-04-24T03:37:37;21.50;;;12.70;;
3443;SDS011;1736;52.068;6.968;2023-04-24T03:40:04;25.83;;;12.17;;
3443;SDS011;1736;52.068;6.968;2023-04-24T03:42:33;23.77;;;12.73;;
3443;SDS011;1736;52.068;6.968;2023-04-24T03:44:59;19.07;;;12.27;;
3443;SDS011;1736;52.068;6.968;2023-04-24T03:47:26;23.67;;;14.93;;
3443;SDS011;1736;52.068;6.968;2023-04-24T03:49:52;25.33;;;12.60;;
3443;SDS011;1736;52.068;6.968;2023-04-24T03:52:20;31.47;;;13.43;;
3443;SDS011;1736;52.068;6.968;2023-04-24T03:54:48;21.53;;;12.93;;
3443;SDS011;1736;52.068;6.968;2023-04-24T03:57:15;22.00;;;12.93;;
3443;SDS011;1736;52.068;6.968;2023-04-24T03:59:41;21.30;;;13.07;;
3443;SDS011;1736;52.068;6.968;2023-04-24T04:02:08;20.00;;;12.43;;
3443;SDS011;1736;52.068;6.968;2023-04-24T04:04:34;21.73;;;12.63;;
3443;SDS011;1736;52.068;6.968;2023-04-24T04:07:01;21.00;;;13.00;;
3443;SDS011;1736;52.068;6.968;2023-04-24T04:09:27;22.70;;;13.70;;
3443;SDS011;1736;52.068;6.968;2023-04-24T04:11:55;18.20;;;11.83;;
3443;SDS011;1736;52.068;6.968;2023-04-24T04:14:22;22.10;;;12.00;;
3443;SDS011;1736;52.068;6.968;2023-04-24T04:16:49;20.10;;;12.70;;
3443;SDS011;1736;52.068;6.968;2023-04-24T04:19:16;23.07;;;13.60;;
3443;SDS011;1736;52.068;6.968;2023-04-24T04:21:42;21.23;;;12.80;;
3443;SDS011;1736;52.068;6.968;2023-04-24T04:24:10;20.33;;;13.23;;
3443;SDS011;1736;52.068;6.968;2023-04-24T04:26:37;25.30;;;14.50;;
3443;SDS011;1736;52.068;6.968;2023-04-24T04:29:05;22.47;;;13.73;;
3443;SDS011;1736;52.068;6.968;2023-04-24T04:31:32;21.37;;;12.83;;
3443;SDS011;1736;52.068;6.968;2023-04-24T04:33:58;20.77;;;13.80;;
3443;SDS011;1736;52.068;6.968;2023-04-24T04:36:26;21.80;;;14.30;;
3443;SDS011;1736;52.068;6.968;2023-04-24T04:38:54;28.83;;;15.27;;
3443;SDS011;1736;52.068;6.968;2023-04-24T04:41:21;25.47;;;15.20;;
3443;SDS011;1736;52.068;6.968;2023-04-24T04:43:48;27.47;;;15.53;;
3443;SDS011;1736;52.068;6.968;2023-04-24T04:46:16;22.53;;;14.10;;
3443;SDS011;1736;52.068;6.968;2023-04-24T04:48:42;23.07;;;14.63;;
3443;SDS011;1736;52.068;6.968;2023-04-24T04:51:09;25.20;;;15.10;;
3443;SDS011;1736;52.068;6.968;2023-04-24T04:53:36;23.07;;;14.43;;
3443;SDS011;1736;52.068;6.968;2023-04-24T04:56:02;26.20;;;15.13;;
3443;SDS011;1736;52.068;6.968;2023-04-24T04:58:29;20.70;;;13.03;;
3443;SDS011;1736;52.068;6.968;2023-04-24T05:00:55;27.50;;;14.83;;
3443;SDS011;1736;52.068;6.968;2023-04-24T05:03:23;23.37;;;14.33;;
3443;SDS011;1736;52.068;6.968;2023-04-24T05:05:50;25.17;;;14.97;;
3443;SDS011;1736;52.068;6.968;2023-04-24T05:08:16;22.80;;;14.77;;
3443;SDS011;1736;52.068;6.968;2023-04-24T05:10:43;31.60;;;15.20;;
3443;SDS011;1736;52.068;6.968;2023-04-24T05:13:09;28.13;;;14.53;;
3443;SDS011;1736;52.068;6.968;2023-04-24T05:15:36;22.33;;;14.30;;
3443;SDS011;1736;52.068;6.968;2023-04-24T05:18:02;26.57;;;14.27;;
3443;SDS011;1736;52.068;6.968;2023-04-24T05:20:30;22.87;;;14.53;;
3443;SDS011;1736;52.068;6.968;2023-04-24T05:22:57;26.80;;;14.40;;
3443;SDS011;1736;52.068;6.968;2023-04-24T05:25:23;25.13;;;14.63;;
3443;SDS011;1736;52.068;6.968;2023-04-24T05:27:50;23.40;;;14.00;;
3443;SDS011;1736;52.068;6.968;2023-04-24T05:30:18;28.13;;;16.07;;
3443;SDS011;1736;52.068;6.968;2023-04-24T05:32:45;28.07;;;15.13;;
3443;SDS011;1736;52.068;6.968;2023-04-24T05:35:11;26.17;;;14.83;;
3443;SDS011;1736;52.068;6.968;2023-04-24T05:37:39;27.27;;;16.47;;
3443;SDS011;1736;52.068;6.968;2023-04-24T05:40:06;30.90;;;16.90;;
3443;SDS011;1736;52.068;6.968;2023-04-24T05:42:33;26.00;;;14.43;;
3443;SDS011;1736;52.068;6.968;2023-04-24T05:45:00;30.60;;;16.87;;
3443;SDS011;1736;52.068;6.968;2023-04-24T05:47:27;25.80;;;16.50;;
3443;SDS011;1736;52.068;6.968;2023-04-24T05:49:53;26.93;;;15.23;;
3443;SDS011;1736;52.068;6.968;2023-04-24T05:52:20;25.30;;;14.90;;
3443;SDS011;1736;52.068;6.968;2023-04-24T05:54:47;24.83;;;15.97;;
3443;SDS011;1736;52.068;6.968;2023-04-24T05:57:14;27.70;;;15.47;;
3443;SDS011;1736;52.068;6.968;2023-04-24T05:59:41;20.00;;;14.10;;
3443;SDS011;1736;52.068;6.968;2023-04-24T06:02:07;21.03;;;14.00;;
3443;SDS011;1736;52.068;6.968;2023-04-24T06:04:34;26.80;;;14.73;;
3443;SDS011;1736;52.068;6.968;2023-04-24T06:07:00;25.50;;;14.37;;
3443;SDS011;1736;52.068;6.968;2023-04-24T06:09:27;22.70;;;14.73;;
3443;SDS011;1736;52.068;6.968;2023-04-24T06:11:55;25.80;;;14.87;;
3443;SDS011;1736;52.068;6.968;2023-04-24T06:14:22;24.63;;;13.57;;
3443;SDS011;1736;52.068;6.968;2023-04-24T06:16:49;24.53;;;14.70;;
3443;SDS011;1736;52.068;6.968;2023-04-24T06:19:15;20.57;;;12.80;;
3443;SDS011;1736;52.068;6.968;2023-04-24T06:21:42;21.30;;;13.87;;
3443;SDS011;1736;52.068;6.968;2023-04-24T06:24:09;21.20;;;13.80;;
3443;SDS011;1736;52.068;6.968;2023-04-24T06:26:35;23.30;;;14.90;;
3443;SDS011;1736;52.068;6.968;2023-04-24T06:29:03;19.37;;;13.10;;
3443;SDS011;1736;52.068;6.968;2023-04-24T06:31:30;19.67;;;13.20;;
3443;SDS011;1736;52.068;6.968;2023-04-24T06:34:00;22.57;;;13.40;;
3443;SDS011;1736;52.068;6.968;2023-04-24T06:36:26;20.97;;;11.73;;
3443;SDS011;1736;52.068;6.968;2023-04-24T06:38:53;25.00;;;12.67;;
3443;SDS011;1736;52.068;6.968;2023-04-24T06:41:20;16.73;;;12.10;;
3443;SDS011;1736;52.068;6.968;2023-04-24T06:43:46;17.47;;;11.90;;
3443;SDS011;1736;52.068;6.968;2023-04-24T06:46:14;18.90;;;11.93;;
3443;SDS011;1736;52.068;6.968;2023-04-24T06:48:41;15.10;;;10.77;;
3443;SDS011;1736;52.068;6.968;2023-04-24T06:51:07;13.83;;;9.60;;
3443;SDS011;1736;52.068;6.968;2023-04-24T06:53:34;13.70;;;9.50;;
3443;SDS011;1736;52.068;6.968;2023-04-24T06:56:00;16.37;;;10.43;;
3443;SDS011;1736;52.068;6.968;2023-04-24T06:58:27;12.70;;;8.93;;
3443;SDS011;1736;52.068;6.968;2023-04-24T07:00:53;15.40;;;9.50;;
3443;SDS011;1736;52.068;6.968;2023-04-24T07:03:21;12.63;;;9.37;;
3443;SDS011;1736;52.068;6.968;2023-04-24T07:05:48;12.00;;;8.67;;
3443;SDS011;1736;52.068;6.968;2023-04-24T07:08:14;12.13;;;8.70;;
3443;SDS011;1736;52.068;6.968;2023-04-24T07:10:42;12.50;;;8.60;;
3443;SDS011;1736;52.068;6.968;2023-04-24T07:13:09;15.73;;;8.50;;
3443;SDS011;1736;52.068;6.968;2023-04-24T07:15:36;11.60;;;8.60;;
3443;SDS011;1736;52.068;6.968;2023-04-24T07:18:02;11.33;;;8.10;;
3443;SDS011;1736;52.068;6.968;2023-04-24T07:20:30;10.77;;;8.17;;
3443;SDS011;1736;52.068;6.968;2023-04-24T07:22:58;12.60;;;8.30;;
3443;SDS011;1736;52.068;6.968;2023-04-24T07:25:24;11.37;;;7.80;;
3443;SDS011;1736;52.068;6.968;2023-04-24T07:27:51;9.17;;;7.17;;
3443;SDS011;1736;52.068;6.968;2023-04-24T07:30:19;12.30;;;7.63;;
3443;SDS011;1736;52.068;6.968;2023-04-24T07:32:46;10.53;;;7.10;;
3443;SDS011;1736;52.068;6.968;2023-04-24T07:35:12;11.87;;;6.73;;
3443;SDS011;1736;52.068;6.968;2023-04-24T07:37:40;8.20;;;6.60;;
3443;SDS011;1736;52.068;6.968;2023-04-24T07:40:11;7.47;;;6.40;;
3443;SDS011;1736;52.068;6.968;2023-04-24T07:42:37;9.80;;;6.17;;
3443;SDS011;1736;52.068;6.968;2023-04-24T07:45:04;7.63;;;6.10;;
3443;SDS011;1736;52.068;6.968;2023-04-24T07:47:32;6.57;;;5.67;;
3443;SDS011;1736;52.068;6.968;2023-04-24T07:49:59;9.67;;;6.20;;
3443;SDS011;1736;52.068;6.968;2023-04-24T07:52:26;7.23;;;5.93;;
3443;SDS011;1736;52.068;6.968;2023-04-24T07:54:54;9.23;;;6.07;;
3443;SDS011;1736;52.068;6.968;2023-04-24T07:57:23;7.87;;;5.53;;
3443;SDS011;1736;52.068;6.968;2023-04-24T07:59:50;6.60;;;5.13;;
3443;SDS011;1736;52.068;6.968;2023-04-24T08:02:16;7.93;;;6.53;;
3443;SDS011;1736;52.068;6.968;2023-04-24T08:04:43;7.83;;;5.93;;
3443;SDS011;1736;52.068;6.968;2023-04-24T08:07:10;7.57;;;6.50;;
3443;SDS011;1736;52.068;6.968;2023-04-24T08:09:37;7.77;;;6.07;;
3443;SDS011;1736;52.068;6.968;2023-04-24T08:12:05;9.40;;;7.00;;
3443;SDS011;1736;52.068;6.968;2023-04-24T08:14:32;9.80;;;6.93;;
3443;SDS011;1736;52.068;6.968;2023-04-24T08:16:58;9.50;;;6.60;;
3443;SDS011;1736;52.068;6.968;2023-04-24T08:19:26;8.50;;;6.70;;
3443;SDS011;1736;52.068;6.968;2023-04-24T08:21:52;8.23;;;7.03;;
3443;SDS011;1736;52.068;6.968;2023-04-24T08:24:19;9.53;;;6.93;;
3443;SDS011;1736;52.068;6.968;2023-04-24T08:26:45;9.80;;;7.40;;
3443;SDS011;1736;52.068;6.968;2023-04-24T08:29:16;12.20;;;7.50;;
3443;SDS011;1736;52.068;6.968;2023-04-24T08:31:43;8.57;;;6.40;;
3443;SDS011;1736;52.068;6.968;2023-04-24T08:34:09;11.37;;;7.67;;
3443;SDS011;1736;52.068;6.968;2023-04-24T08:36:36;11.10;;;7.60;;
3443;SDS011;1736;52.068;6.968;2023-04-24T08:39:05;12.90;;;7.07;;
3443;SDS011;1736;52.068;6.968;2023-04-24T08:41:32;10.43;;;6.57;;
3443;SDS011;1736;52.068;6.968;2023-04-24T08:44:00;11.40;;;6.97;;
3443;SDS011;1736;52.068;6.968;2023-04-24T08:46:29;10.30;;;7.60;;
3443;SDS011;1736;52.068;6.968;2023-04-24T08:48:56;13.13;;;7.03;;
3443;SDS011;1736;52.068;6.968;2023-04-24T08:51:24;10.43;;;6.43;;
3443;SDS011;1736;52.068;6.968;2023-04-24T08:53:52;8.17;;;6.77;;
3443;SDS011;1736;52.068;6.968;2023-04-24T08:56:20;8.37;;;6.30;;
3443;SDS011;1736;52.068;6.968;2023-04-24T08:58:48;10.23;;;6.23;;
3443;SDS011;1736;52.068;6.968;2023-04-24T09:01:15;7.63;;;6.03;;
3443;SDS011;1736;52.068;6.968;2023-04-24T09:03:43;8.90;;;6.27;;
3443;SDS011;1736;52.068;6.968;2023-04-24T09:06:11;11.80;;;7.00;;
3443;SDS011;1736;52.068;6.968;2023-04-24T09:08:37;12.37;;;7.23;;
3443;SDS011;1736;52.068;6.968;2023-04-24T09:11:07;10.00;;;5.97;;
3443;SDS011;1736;52.068;6.968;2023-04-24T09:13:34;8.40;;;6.40;;
3443;SDS011;1736;52.068;6.968;2023-04-24T09:16:00;8.40;;;5.90;;
3443;SDS011;1736;52.068;6.968;2023-04-24T09:18:27;7.60;;;6.00;;
3443;SDS011;1736;52.068;6.968;2023-04-24T09:20:58;8.00;;;5.60;;
3443;SDS011;1736;52.068;6.968;2023-04-24T09:23:26;10.17;;;6.53;;
3443;SDS011;1736;52.068;6.968;2023-04-24T09:25:54;8.57;;;5.73;;
3443;SDS011;1736;52.068;6.968;2023-04-24T09:28:23;8.50;;;5.57;;
3443;SDS011;1736;52.068;6.968;2023-04-24T09:31:01;5.30;;;4.40;;
3443;SDS011;1736;52.068;6.968;2023-04-24T09:33:31;6.23;;;4.37;;
3443;SDS011;1736;52.068;6.968;2023-04-24T09:36:00;4.80;;;3.77;;
3443;SDS011;1736;52.068;6.968;2023-04-24T09:38:30;7.80;;;4.33;;
3443;SDS011;1736;52.068;6.968;2023-04-24T09:40:59;6.90;;;4.70;;
3443;SDS011;1736;52.068;6.968;2023-04-24T09:43:27;8.40;;;6.00;;
3443;SDS011;1736;52.068;6.968;2023-04-24T09:45:55;12.67;;;8.43;;
3443;SDS011;1736;52.068;6.968;2023-04-24T09:48:33;11.03;;;7.63;;
3443;SDS011;1736;52.068;6.968;2023-04-24T09:51:02;12.10;;;8.03;;
3443;SDS011;1736;52.068;6.968;2023-04-24T09:53:31;11.20;;;8.70;;
3443;SDS011;1736;52.068;6.968;2023-04-24T09:56:02;14.67;;;9.83;;
3443;SDS011;1736;52.068;6.968;2023-04-24T09:58:29;16.00;;;10.40;;
3443;SDS011;1736;52.068;6.968;2023-04-24T10:01:02;15.83;;;8.10;;
3443;SDS011;1736;52.068;6.968;2023-04-24T10:03:29;12.30;;;8.23;;
3443;SDS011;1736;52.068;6.968;2023-04-24T10:05:58;19.53;;;9.03;;
3443;SDS011;1736;52.068;6.968;2023-04-24T10:08:26;17.20;;;8.20;;
3443;SDS011;1736;52.068;6.968;2023-04-24T10:10:58;12.37;;;8.67;;
3443;SDS011;1736;52.068;6.968;2023-04-24T10:13:25;11.53;;;8.00;;
3443;SDS011;1736;52.068;6.968;2023-04-24T10:15:52;11.53;;;7.30;;
3443;SDS011;1736;52.068;6.968;2023-04-24T10:18:20;10.53;;;8.70;;
3443;SDS011;1736;52.068;6.968;2023-04-24T10:20:47;10.80;;;7.23;;
3443;SDS011;1736;52.068;6.968;2023-04-24T10:23:13;13.10;;;7.30;;
3443;SDS011;1736;52.068;6.968;2023-04-24T10:25:43;15.70;;;8.40;;
3443;SDS011;1736;52.068;6.968;2023-04-24T10:28:09;10.57;;;7.40;;
3443;SDS011;1736;52.068;6.968;2023-04-24T10:30:38;15.83;;;9.20;;
3443;SDS011;1736;52.068;6.968;2023-04-24T10:33:08;11.03;;;8.07;;
3443;SDS011;1736;52.068;6.968;2023-04-24T10:35:36;14.17;;;8.80;;
3443;SDS011;1736;52.068;6.968;2023-04-24T10:38:08;14.17;;;7.67;;
3443;SDS011;1736;52.068;6.968;2023-04-24T10:40:37;16.80;;;7.30;;
3443;SDS011;1736;52.068;6.968;2023-04-24T10:43:05;9.63;;;6.20;;
3443;SDS011;1736;52.068;6.968;2023-04-24T10:45:36;11.23;;;6.97;;
3443;SDS011;1736;52.068;6.968;2023-04-24T10:48:03;11.40;;;6.90;;
3443;SDS011;1736;52.068;6.968;2023-04-24T10:50:42;15.77;;;7.40;;
3443;SDS011;1736;52.068;6.968;2023-04-24T10:53:14;11.90;;;8.03;;
3443;SDS011;1736;52.068;6.968;2023-04-24T10:55:43;11.40;;;6.87;;
3443;SDS011;1736;52.068;6.968;2023-04-24T10:58:12;9.93;;;6.40;;
3443;SDS011;1736;52.068;6.968;2023-04-24T11:00:41;9.23;;;5.00;;
3443;SDS011;1736;52.068;6.968;2023-04-24T11:03:22;7.10;;;4.60;;
3443;SDS011;1736;52.068;6.968;2023-04-24T11:05:51;7.80;;;5.27;;
3443;SDS011;1736;52.068;6.968;2023-04-24T11:08:23;6.97;;;4.60;;
3443;SDS011;1736;52.068;6.968;2023-04-24T11:10:56;5.63;;;5.07;;
3443;SDS011;1736;52.068;6.968;2023-04-24T11:13:27;6.90;;;4.27;;
3443;SDS011;1736;52.068;6.968;2023-04-24T11:16:13;12.37;;;5.27;;
3443;SDS011;1736;52.068;6.968;2023-04-24T11:18:49;11.17;;;4.77;;
3443;SDS011;1736;52.068;6.968;2023-04-24T11:21:19;15.40;;;4.87;;
3443;SDS011;1736;52.068;6.968;2023-04-24T11:23:46;12.37;;;5.20;;
3443;SDS011;1736;52.068;6.968;2023-04-24T11:26:14;13.23;;;5.60;;
3443;SDS011;1736;52.068;6.968;2023-04-24T11:28:47;8.43;;;5.20;;
3443;SDS011;1736;52.068;6.968;2023-04-24T11:34:09;14.80;;;6.60;;
3443;SDS011;1736;52.068;6.968;2023-04-24T11:36:37;16.17;;;5.53;;
3443;SDS011;1736;52.068;6.968;2023-04-24T11:39:04;11.30;;;6.17;;
3443;SDS011;1736;52.068;6.968;2023-04-24T11:41:31;18.07;;;5.77;;
3443;SDS011;1736;52.068;6.968;2023-04-24T11:44:01;9.33;;;5.37;;
3443;SDS011;1736;52.068;6.968;2023-04-24T11:46:29;9.87;;;5.40;;
3443;SDS011;1736;52.068;6.968;2023-04-24T11:48:57;14.17;;;5.30;;
3443;SDS011;1736;52.068;6.968;2023-04-24T11:51:24;7.47;;;4.73;;
3443;SDS011;1736;52.068;6.968;2023-04-24T11:53:52;9.53;;;5.17;;
3443;SDS011;1736;52.068;6.968;2023-04-24T11:56:19;7.33;;;4.40;;
3443;SDS011;1736;52.068;6.968;2023-04-24T11:58:45;11.13;;;4.37;;
3443;SDS011;1736;52.068;6.968;2023-04-24T12:01:14;9.23;;;4.63;;
3443;SDS011;1736;52.068;6.968;2023-04-24T12:03:40;10.20;;;4.00;;
3443;SDS011;1736;52.068;6.968;2023-04-24T12:06:09;6.33;;;3.47;;
3443;SDS011;1736;52.068;6.968;2023-04-24T12:08:37;13.43;;;4.20;;
3443;SDS011;1736;52.068;6.968;2023-04-24T12:11:05;4.90;;;3.60;;
3443;SDS011;1736;52.068;6.968;2023-04-24T12:13:33;4.40;;;3.27;;
3443;SDS011;1736;52.068;6.968;2023-04-24T12:16:00;4.97;;;3.23;;
3443;SDS011;1736;52.068;6.968;2023-04-24T12:18:29;9.70;;;3.73;;
3443;SDS011;1736;52.068;6.968;2023-04-24T12:23:42;8.07;;;4.07;;
3443;SDS011;1736;52.068;6.968;2023-04-24T12:26:09;11.33;;;4.20;;
3443;SDS011;1736;52.068;6.968;2023-04-24T12:28:35;6.30;;;4.33;;
3443;SDS011;1736;52.068;6.968;2023-04-24T12:31:03;7.10;;;3.17;;
3443;SDS011;1736;52.068;6.968;2023-04-24T12:33:33;7.57;;;4.23;;
3443;SDS011;1736;52.068;6.968;2023-04-24T12:36:01;5.07;;;3.40;;
3443;SDS011;1736;52.068;6.968;2023-04-24T12:38:28;12.37;;;3.93;;
3443;SDS011;1736;52.068;6.968;2023-04-24T12:41:02;4.73;;;3.13;;
3443;SDS011;1736;52.068;6.968;2023-04-24T12:43:29;4.50;;;3.00;;
3443;SDS011;1736;52.068;6.968;2023-04-24T12:45:56;6.63;;;2.83;;
3443;SDS011;1736;52.068;6.968;2023-04-24T12:48:24;6.00;;;3.43;;
3443;SDS011;1736;52.068;6.968;2023-04-24T12:50:52;7.40;;;3.20;;
3443;SDS011;1736;52.068;6.968;2023-04-24T12:53:19;13.20;;;4.93;;
3443;SDS011;1736;52.068;6.968;2023-04-24T12:55:45;7.20;;;5.13;;
3443;SDS011;1736;52.068;6.968;2023-04-24T12:58:17;5.07;;;3.83;;
3443;SDS011;1736;52.068;6.968;2023-04-24T13:00:43;4.70;;;3.70;;
3443;SDS011;1736;52.068;6.968;2023-04-24T13:03:11;4.83;;;3.13;;
3443;SDS011;1736;52.068;6.968;2023-04-24T13:05:37;7.70;;;3.13;;
3443;SDS011;1736;52.068;6.968;2023-04-24T13:08:05;7.03;;;2.67;;
3443;SDS011;1736;52.068;6.968;2023-04-24T13:10:32;6.40;;;3.40;;
3443;SDS011;1736;52.068;6.968;2023-04-24T13:12:59;5.00;;;2.40;;
3443;SDS011;1736;52.068;6.968;2023-04-24T13:15:25;10.20;;;2.07;;
3443;SDS011;1736;52.068;6.968;2023-04-24T13:17:52;2.97;;;2.40;;
3443;SDS011;1736;52.068;6.968;2023-04-24T13:20:18;4.90;;;2.33;;
3443;SDS011;1736;52.068;6.968;2023-04-24T13:22:45;6.37;;;2.10;;
3443;SDS011;1736;52.068;6.968;2023-04-24T13:25:13;3.50;;;2.30;;
3443;SDS011;1736;52.068;6.968;2023-04-24T13:27:41;3.97;;;1.80;;
3443;SDS011;1736;52.068;6.968;2023-04-24T13:30:08;1.87;;;1.77;;
3443;SDS011;1736;52.068;6.968;2023-04-24T13:32:36;3.87;;;2.10;;
3443;SDS011;1736;52.068;6.968;2023-04-24T13:35:02;1.53;;;1.43;;
3443;SDS011;1736;52.068;6.968;2023-04-24T13:37:29;4.00;;;2.10;;
3443;SDS011;1736;52.068;6.968;2023-04-24T13:39:56;2.20;;;1.80;;
3443;SDS011;1736;52.068;6.968;2023-04-24T13:42:24;6.03;;;2.10;;
3443;SDS011;1736;52.068;6.968;2023-04-24T13:44:51;3.03;;;1.90;;
3443;SDS011;1736;52.068;6.968;2023-04-24T13:47:19;2.77;;;1.90;;
3443;SDS011;1736;52.068;6.968;2023-04-24T13:49:45;4.40;;;2.00;;
3443;SDS011;1736;52.068;6.968;2023-04-24T13:52:12;2.03;;;1.93;;
3443;SDS011;1736;52.068;6.968;2023-04-24T13:54:39;4.10;;;2.10;;
3443;SDS011;1736;52.068;6.968;2023-04-24T13:57:05;2.60;;;2.00;;
3443;SDS011;1736;52.068;6.968;2023-04-24T13:59:33;3.77;;;2.10;;
3443;SDS011;1736;52.068;6.968;2023-04-24T14:01:59;3.60;;;1.90;;
3443;SDS011;1736;52.068;6.968;2023-04-24T14:04:26;2.20;;;1.70;;
3443;SDS011;1736;52.068;6.968;2023-04-24T14:06:52;2.83;;;2.37;;
3443;SDS011;1736;52.068;6.968;2023-04-24T14:09:19;2.07;;;1.90;;
3443;SDS011;1736;52.068;6.968;2023-04-24T14:11:45;2.37;;;2.17;;
3443;SDS011;1736;52.068;6.968;2023-04-24T14:14:12;5.37;;;2.30;;
3443;SDS011;1736;52.068;6.968;2023-04-24T14:16:40;5.20;;;2.23;;
3443;SDS011;1736;52.068;6.968;2023-04-24T14:19:06;2.50;;;1.97;;
3443;SDS011;1736;52.068;6.968;2023-04-24T14:21:33;5.20;;;2.40;;
3443;SDS011;1736;52.068;6.968;2023-04-24T14:24:00;2.00;;;1.90;;
3443;SDS011;1736;52.068;6.968;2023-04-24T14:26:26;3.87;;;2.13;;
3443;SDS011;1736;52.068;6.968;2023-04-24T14:28:53;3.90;;;2.17;;
3443;SDS011;1736;52.068;6.968;2023-04-24T14:31:20;2.60;;;2.03;;
3443;SDS011;1736;52.068;6.968;2023-04-24T14:33:47;3.60;;;1.90;;
3443;SDS011;1736;52.068;6.968;2023-04-24T14:36:14;3.13;;;1.70;;
3443;SDS011;1736;52.068;6.968;2023-04-24T14:38:40;3.00;;;1.70;;
3443;SDS011;1736;52.068;6.968;2023-04-24T14:41:07;2.37;;;1.63;;
3443;SDS011;1736;52.068;6.968;2023-04-24T14:43:35;3.17;;;1.67;;
3443;SDS011;1736;52.068;6.968;2023-04-24T14:46:01;5.43;;;2.07;;
3443;SDS011;1736;52.068;6.968;2023-04-24T14:48:28;4.10;;;2.00;;
3443;SDS011;1736;52.068;6.968;2023-04-24T14:50:56;3.53;;;2.70;;
3443;SDS011;1736;52.068;6.968;2023-04-24T14:53:23;2.77;;;2.10;;
3443;SDS011;1736;52.068;6.968;2023-04-24T14:55:49;4.50;;;2.13;;
3443;SDS011;1736;52.068;6.968;2023-04-24T14:58:16;7.40;;;2.17;;
3443;SDS011;1736;52.068;6.968;2023-04-24T15:00:43;2.07;;;1.90;;
3443;SDS011;1736;52.068;6.968;2023-04-24T15:03:09;3.27;;;1.83;;
3443;SDS011;1736;52.068;6.968;2023-04-24T15:05:36;6.30;;;2.30;;
3443;SDS011;1736;52.068;6.968;2023-04-24T15:08:03;2.60;;;2.00;;
3443;SDS011;1736;52.068;6.968;2023-04-24T15:10:30;5.60;;;2.20;;
3443;SDS011;1736;52.068;6.968;2023-04-24T15:12:57;3.43;;;1.87;;